עמוד ראשי
METAR-TAF:

METAR-TAF

שדות תעופה :

נמל התעופה טוקיו האנדה

טוקיו-Haneda, יפן

קו רוחב: 35-33N, קו אורך: 139-47E, גובה: 5מטר

תצפית מזג אוויר נוכחית

הדו"ח נערך לפני 35דקות, בשעה 12:30 UTC
רוח 4קשר מכיוון מזרח/צפון-מזרח
טמפרטורת 18 צלסיוס
לחות 88%
לחץ 1008 hPa
ראות 10 קילומטר או יותר
מעט עננים בגובה 1000רגל
עננים בינוניים בגובה 6000רגל

METAR: RJTT 171230Z 07004KT 9999 FEW010 BKN060 18/16 Q1008 BECMG TL1300 04006KT RMK 1CU010 7AC060 A2979

זמן: 22:05 (13:05 UTC)

תחזית

הדו"ח נערך לפני 2 שעות ו 0דקות, בשעה 11:05 UTC
תחזית בתוקף מ 17 ב 12 UTC עד 18 ב 18 UTC
רוח 10קשר מכיוון צפון
ראות 10 קילומטר או יותר
מעט עננים בגובה 2000רגל
עננים פזורים בגובה 5000רגל

TAF: RJTT 171105Z 1712/1818 01010KT 9999 FEW020 SCT050

תצפיות ותחזיות מזג אוויר לגבי יותר מ- 4,000 שדות תעופה ברחבי העולם. דוחות METAR ו- TAF.

התחנות הזמינות מסומנות בנקודות צהובות ואדומות על גבי המפה.

העבר את העכבר לנקודה הצבעונית על מנת לראות את שם התחנה.

לאחר מכן, לחץ כדי לראות את תוכן ואת תחזיות מזג האוויר.

כדי לשנות את המפה: לחץ על הכפתורים הירוקים עם הפלוס השחור כדי להתקרב; על הכפתור הירוק עם המקף כדי להתרחק; או בחיצים הירוקים למפות סמוכות.


METAR-TAF: